Time;durP1;ratioP1;P1;durP2;ratioP2;P2;SDS_P1;SDS_P2;PMS_P1;PMS_P2;Temp;Humidity;BMP_temperature;BMP_pressure;BME280_temperature;BME280_humidity;BME280_pressure;Samples;Min_cycle;Max_cycle;Signal;HPM_P1;HPM_P2
2022/03/24 00:00:54;;;;;;;4.63;2.78;;;;;;;10.67;66.16;101305.81;2068746;28;20050;-80
2022/03/24 00:02:16;;;;;;;8.50;2.47;;;;;;;10.65;66.02;101302.25;2075458;28;20034;-80
2022/03/24 00:03:38;;;;;;;8.80;2.75;;;;;;;10.64;65.83;101311.91;2086141;28;20053;-80
2022/03/24 00:04:59;;;;;;;9.50;1.92;;;;;;;10.65;65.88;101312.81;2082530;28;20080;-80
2022/03/24 00:06:22;;;;;;;8.68;2.05;;;;;;;10.65;65.70;101303.13;2077792;28;20041;-80
2022/03/24 00:07:45;;;;;;;6.25;2.03;;;;;;;10.68;65.44;101297.06;2072553;28;20050;-81
2022/03/24 00:09:06;;;;;;;5.82;2.40;;;;;;;10.67;65.29;101305.81;2085656;28;20059;-80
2022/03/24 00:10:29;;;;;;;11.52;2.28;;;;;;;10.65;64.98;101303.13;2079904;28;20045;-80
2022/03/24 00:11:50;;;;;;;5.85;2.15;;;;;;;10.64;64.89;101297.81;2078167;28;20060;-81
2022/03/24 00:13:14;;;;;;;6.63;1.95;;;;;;;10.62;64.56;101296.91;2070664;28;20062;-81
2022/03/24 00:14:38;;;;;;;4.53;1.48;;;;;;;10.60;64.58;101298.59;2073177;28;20056;-80
2022/03/24 00:16:00;;;;;;;7.82;2.33;;;;;;;10.56;64.56;101289.72;2079876;28;20132;-80
2022/03/24 00:17:22;;;;;;;8.23;2.00;;;;;;;10.53;64.55;101286.13;2084152;28;20068;-80
2022/03/24 00:18:45;;;;;;;14.35;2.83;;;;;;;10.51;64.55;101291.34;2071546;28;20042;-81
2022/03/24 00:20:07;;;;;;;5.13;2.05;;;;;;;10.52;64.28;101294.88;2069439;28;20069;-80
2022/03/24 00:21:30;;;;;;;7.35;2.25;;;;;;;10.48;64.31;101295.69;2083877;28;20780;-80
2022/03/24 00:22:52;;;;;;;4.22;1.92;;;;;;;10.45;64.14;101299.13;2082654;28;20065;-81
2022/03/24 00:24:14;;;;;;;7.88;2.45;;;;;;;10.44;64.03;101301.72;2077152;28;20532;-80
2022/03/24 00:25:37;;;;;;;8.25;2.65;;;;;;;10.43;64.21;101298.22;2085693;28;20041;-80
2022/03/24 00:27:00;;;;;;;7.75;2.60;;;;;;;10.45;64.26;101303.50;2069550;28;20061;-80
2022/03/24 00:28:22;;;;;;;11.00;2.63;;;;;;;10.41;64.34;101299.91;2076978;28;20046;-80
2022/03/24 00:29:47;;;;;;;9.43;2.10;;;;;;;10.41;64.43;101299.00;2069787;28;20058;-81
2022/03/24 00:31:09;;;;;;;5.50;2.78;;;;;;;10.36;64.80;101299.81;2067450;28;20061;-80
2022/03/24 00:32:32;;;;;;;11.25;2.38;;;;;;;10.31;64.76;101297.88;2077384;28;20041;-80
2022/03/24 00:33:53;;;;;;;4.32;1.50;;;;;;;10.29;64.72;101297.88;2077020;28;20049;-81
2022/03/24 00:35:17;;;;;;;6.43;1.55;;;;;;;10.26;64.83;101289.84;2076837;28;20568;-80
2022/03/24 00:36:38;;;;;;;3.08;1.38;;;;;;;10.23;64.73;101299.47;2069409;28;20641;-80
2022/03/24 00:38:01;;;;;;;5.10;2.10;;;;;;;10.19;64.71;101289.66;2063631;28;20137;-80
2022/03/24 00:39:22;;;;;;;7.35;2.63;;;;;;;10.13;64.93;101293.00;2084020;28;20055;-80
2022/03/24 00:40:45;;;;;;;8.43;2.20;;;;;;;10.10;64.91;101294.69;2080201;28;20049;-81
2022/03/24 00:42:11;;;;;;;6.15;2.10;;;;;;;10.07;64.73;101291.94;2064721;28;20108;-80
2022/03/24 00:43:34;;;;;;;6.57;1.95;;;;;;;10.02;65.12;101293.59;2068330;28;20045;-79
2022/03/24 00:44:59;;;;;;;10.48;2.20;;;;;;;10.00;64.99;101288.25;2077235;28;20049;-80
2022/03/24 00:46:23;;;;;;;3.78;2.03;;;;;;;10.01;65.14;101284.78;2088131;28;20527;-80
2022/03/24 00:47:46;;;;;;;6.43;2.28;;;;;;;10.00;65.15;101290.91;2066572;28;20148;-81
2022/03/24 00:49:08;;;;;;;9.45;2.00;;;;;;;10.00;65.10;101296.19;2066358;28;20034;-80
2022/03/24 00:50:31;;;;;;;9.07;2.92;;;;;;;10.02;64.78;101280.41;2083708;28;20582;-80
2022/03/24 00:51:52;;;;;;;7.93;2.13;;;;;;;10.04;64.95;101294.53;2074899;28;20500;-80
2022/03/24 00:53:15;;;;;;;;;;;;;;;10.06;64.98;101276.97;2076352;28;20103;-81
2022/03/24 00:54:38;;;;;;;;;;;;;;;10.07;65.18;101284.03;2078105;28;19927;-80
2022/03/24 00:56:00;;;;;;;6.82;2.78;;;;;;;10.06;65.23;101293.69;2080448;28;20018;-79
2022/03/24 00:57:23;;;;;;;6.85;3.25;;;;;;;10.09;64.97;101285.88;2067329;28;20529;-80
2022/03/24 00:58:44;;;;;;;4.70;1.92;;;;;;;10.10;64.94;101285.03;2078920;28;20080;-80
2022/03/24 01:00:15;;;;;;;8.98;2.33;;;;;;;10.15;64.97;101291.31;2075478;28;20060;-80
2022/03/24 01:01:39;;;;;;;9.55;2.72;;;;;;;10.15;64.87;101285.13;2071610;28;20057;-80
2022/03/24 01:03:00;;;;;;;6.68;2.95;;;;;;;10.17;64.82;101276.44;2091345;28;20071;-80
2022/03/24 01:04:23;;;;;;;8.77;2.22;;;;;;;10.19;64.49;101273.81;2075325;28;20573;-79
2022/03/24 01:05:47;;;;;;;10.95;2.40;;;;;;;10.24;64.25;101280.13;2084444;28;20072;-80
2022/03/24 01:07:11;;;;;;;7.70;1.60;;;;;;;10.25;64.17;101269.59;2070263;28;20050;-80
2022/03/24 01:08:33;;;;;;;6.60;2.17;;;;;;;10.27;64.13;101256.44;2075331;28;20432;-80
2022/03/24 01:09:55;;;;;;;3.88;1.80;;;;;;;10.26;63.94;101276.66;2077359;28;20168;-80
2022/03/24 01:11:17;;;;;;;8.65;2.42;;;;;;;10.30;63.81;101272.38;2077420;28;20132;-80
2022/03/24 01:12:41;;;;;;;6.18;2.33;;;;;;;10.31;63.88;101269.75;2074258;28;20168;-80
2022/03/24 01:14:05;;;;;;;5.75;2.65;;;;;;;10.31;63.86;101275.03;2068851;28;20442;-80
2022/03/24 01:15:30;;;;;;;5.57;1.77;;;;;;;10.32;63.93;101274.19;2077830;28;20634;-80
2022/03/24 01:16:53;;;;;;;7.70;2.58;;;;;;;10.33;63.77;101275.97;2070659;28;20057;-81
2022/03/24 01:18:16;;;;;;;5.35;1.77;;;;;;;10.29;63.76;101270.59;2077712;28;20091;-80
2022/03/24 01:19:40;;;;;;;7.53;2.05;;;;;;;10.26;63.76;101265.22;2063692;28;20137;-80
2022/03/24 01:21:03;;;;;;;3.58;1.85;;;;;;;10.22;63.80;101266.91;2066259;28;20549;-80
2022/03/24 01:22:25;;;;;;;6.45;1.98;;;;;;;10.17;63.95;101273.81;2085232;28;20111;-80
2022/03/24 01:23:48;;;;;;;5.18;1.95;;;;;;;10.16;64.06;101264.06;2068850;28;20562;-80
2022/03/24 01:25:11;;;;;;;5.35;2.00;;;;;;;10.18;64.15;101256.22;2081641;28;20056;-80
2022/03/24 01:26:36;;;;;;;4.18;1.70;;;;;;;10.16;64.16;101264.06;2074255;28;20134;-80
2022/03/24 01:27:59;;;;;;;4.18;2.10;;;;;;;10.18;64.18;101264.13;2083511;28;20052;-81
2022/03/24 01:29:22;;;;;;;9.05;2.38;;;;;;;10.18;64.10;101265.03;2069360;28;20054;-80
2022/03/24 01:30:46;;;;;;;6.85;1.73;;;;;;;10.21;64.20;101262.47;2075068;28;20037;-80
2022/03/24 01:32:10;;;;;;;6.97;2.30;;;;;;;10.23;64.03;101271.31;2077811;28;20045;-80
2022/03/24 01:33:33;;;;;;;7.38;1.98;;;;;;;10.20;64.12;101259.78;2069360;28;20034;-80
2022/03/24 01:34:56;;;;;;;6.60;2.22;;;;;;;10.20;64.14;101265.06;2081380;28;20140;-80
2022/03/24 01:36:20;;;;;;;5.68;2.38;;;;;;;10.19;64.07;101273.81;2075259;28;20473;-80
2022/03/24 01:37:42;;;;;;;6.68;2.05;;;;;;;10.16;63.93;101282.53;2053498;28;20113;-79
2022/03/24 01:39:04;;;;;;;;;;;;;;;10.18;64.14;101272.94;2080324;28;20124;-80
2022/03/24 01:40:25;;;;;;;9.10;2.88;;;;;;;10.15;64.23;101256.13;2072042;28;19971;-79
2022/03/24 01:41:48;;;;;;;;;;;;;;;10.17;64.50;101271.19;2083268;28;20039;-80
2022/03/24 01:43:11;;;;;;;7.88;3.08;;;;;;;10.15;64.93;101267.56;2084856;28;19921;-79
2022/03/24 01:44:35;;;;;;;5.32;1.77;;;;;;;10.15;64.89;101266.66;2079608;28;20045;-79
2022/03/24 01:45:59;;;;;;;6.07;2.47;;;;;;;10.14;65.17;101268.41;2083522;28;20037;-80
2022/03/24 01:47:22;;;;;;;8.23;2.50;;;;;;;10.10;65.27;101278.84;2085104;28;20041;-80
2022/03/24 01:48:46;;;;;;;9.02;2.38;;;;;;;10.09;65.21;101277.97;2071029;28;20111;-80
2022/03/24 01:50:09;;;;;;;8.55;2.60;;;;;;;10.10;65.19;101260.38;2087040;28;20041;-80
2022/03/24 01:51:33;;;;;;;8.73;2.83;;;;;;;10.06;65.09;101274.34;2079595;28;20056;-79
2022/03/24 01:52:56;;;;;;;7.05;2.72;;;;;;;10.03;64.85;101275.16;2080523;28;20044;-79
2022/03/24 01:54:18;;;;;;;9.07;3.00;;;;;;;10.04;64.68;101276.06;2085542;28;20256;-79
2022/03/24 01:55:42;;;;;;;2.22;1.80;;;;;;;10.06;64.70;101272.59;2079462;28;20874;-79
2022/03/24 01:57:07;;;;;;;7.63;2.67;;;;;;;10.08;64.48;101267.38;2071183;28;20064;-79
2022/03/24 01:58:31;;;;;;;5.15;2.78;;;;;;;10.10;64.15;101266.56;2076545;28;20049;-79
2022/03/24 01:59:53;;;;;;;6.70;2.42;;;;;;;10.14;63.84;101264.88;2076769;28;20052;-80
2022/03/24 02:01:35;;;;;;;6.63;2.75;;;;;;;10.18;63.46;101267.66;2069140;28;20453;-79
2022/03/24 02:03:00;;;;;;;8.05;2.83;;;;;;;10.18;63.28;101250.94;2082200;28;20087;-79
2022/03/24 02:04:23;;;;;;;5.72;2.38;;;;;;;10.18;63.39;101257.09;2080080;28;20041;-79
2022/03/24 02:05:45;;;;;;;8.88;3.00;;;;;;;10.20;63.17;101254.50;2077089;28;20042;-79
2022/03/24 02:07:09;;;;;;;9.48;3.22;;;;;;;10.23;63.42;101255.50;2071947;28;20107;-79
2022/03/24 02:08:34;;;;;;;;;;;;;;;10.26;63.08;101252.03;2074849;28;20485;-79
2022/03/24 02:09:56;;;;;;;10.25;3.28;;;;;;;10.26;63.34;101258.19;2068751;28;20619;-79
2022/03/24 02:11:21;;;;;;;6.30;2.60;;;;;;;10.28;63.21;101248.56;2083039;28;20041;-80
2022/03/24 02:12:44;;;;;;;6.65;2.05;;;;;;;10.26;63.32;101242.38;2079466;28;20393;-80
2022/03/24 02:14:06;;;;;;;5.70;2.22;;;;;;;10.28;63.46;101234.50;2076893;28;20146;-80
2022/03/24 02:15:30;;;;;;;;;;;;;;;10.26;63.63;101242.38;2081656;28;20053;-80
2022/03/24 02:16:52;;;;;;;9.23;2.97;;;;;;;10.26;63.89;101249.38;2071178;28;19972;-80
2022/03/24 02:18:15;;;;;;;6.30;2.63;;;;;;;10.19;64.09;101245.69;2076835;28;20061;-80
2022/03/24 02:19:37;;;;;;;8.85;3.00;;;;;;;10.16;64.46;101242.97;2068474;28;20372;-80
2022/03/24 02:21:00;;;;;;;9.95;3.15;;;;;;;10.15;64.79;101257.00;2090257;28;20032;-80
2022/03/24 02:22:25;;;;;;;5.57;2.25;;;;;;;10.17;64.86;101243.91;2073678;28;20054;-80
2022/03/24 02:23:49;;;;;;;2.72;1.65;;;;;;;10.15;65.17;101256.13;2077105;28;20071;-81
2022/03/24 02:25:11;;;;;;;6.03;2.30;;;;;;;10.11;65.29;101259.53;2087383;28;20103;-80
2022/03/24 02:26:35;;;;;;;6.57;2.72;;;;;;;10.06;65.45;101251.50;2079624;28;20051;-79
2022/03/24 02:27:58;;;;;;;9.20;3.50;;;;;;;10.01;65.55;101247.84;2075717;28;20112;-80
2022/03/24 02:29:25;;;;;;;11.73;3.63;;;;;;;10.03;65.33;101275.16;2074559;28;20087;-79
2022/03/24 02:30:47;;;;;;;4.70;2.65;;;;;;;10.03;65.09;101277.81;2091350;28;20067;-80
2022/03/24 02:32:11;;;;;;;4.82;3.13;;;;;;;10.02;65.02;101278.66;2074088;28;20050;-80
2022/03/24 02:33:33;;;;;;;9.23;3.10;;;;;;;10.00;65.06;101280.34;2091145;28;20079;-79
2022/03/24 02:34:55;;;;;;;6.70;3.13;;;;;;;9.97;65.32;101277.66;2078360;28;20503;-79
2022/03/24 02:36:17;;;;;;;12.95;3.38;;;;;;;9.98;65.46;101292.59;2085742;28;20071;-79
2022/03/24 02:37:43;;;;;;;8.93;4.15;;;;;;;9.96;65.67;101284.66;2070859;28;20040;-79
2022/03/24 02:39:05;;;;;;;8.30;3.45;;;;;;;9.91;65.90;101288.91;2081162;28;20049;-79
2022/03/24 02:40:28;;;;;;;7.30;3.53;;;;;;;9.85;65.79;101282.56;2073784;28;20038;-79
2022/03/24 02:41:51;;;;;;;10.68;5.13;;;;;;;9.83;65.95;101284.28;2066361;28;20057;-79
2022/03/24 02:43:15;;;;;;;6.65;2.33;;;;;;;9.77;66.37;101289.41;2074355;28;20041;-79
2022/03/24 02:44:37;;;;;;;7.63;4.20;;;;;;;9.77;66.51;101276.22;2068768;28;20541;-79
2022/03/24 02:45:59;;;;;;;14.85;3.80;;;;;;;9.77;66.39;101276.22;2074866;28;20049;-80
2022/03/24 02:47:22;;;;;;;7.47;3.45;;;;;;;9.80;66.24;101282.47;2068655;28;20104;-79
2022/03/24 02:48:45;;;;;;;9.15;3.33;;;;;;;9.83;66.18;101276.38;2074438;28;20041;-80
2022/03/24 02:50:09;;;;;;;10.18;3.75;;;;;;;9.89;66.11;101274.81;2087182;28;20049;-79
2022/03/24 02:51:32;;;;;;;4.63;1.98;;;;;;;9.95;65.85;101277.59;2062498;28;20135;-79
2022/03/24 02:52:56;;;;;;;8.98;4.30;;;;;;;9.99;65.83;101283.84;2074566;28;20057;-79
2022/03/24 02:54:18;;;;;;;7.68;3.13;;;;;;;10.04;65.80;101284.88;2070366;28;20132;-80
2022/03/24 02:55:40;;;;;;;;;;;;;;;10.08;65.54;101277.91;2070113;28;20085;-80
2022/03/24 02:57:02;;;;;;;9.73;2.95;;;;;;;10.09;65.41;101280.59;2082836;28;20305;-79
2022/03/24 02:58:25;;;;;;;6.90;3.05;;;;;;;10.11;65.37;101281.50;2070954;28;20080;-79
2022/03/24 02:59:48;;;;;;;7.00;2.22;;;;;;;10.13;65.30;101273.66;2068503;28;20127;-79
2022/03/24 03:01:09;;;;;;;15.10;4.85;;;;;;;10.12;65.26;101287.69;2073747;28;20050;-80
2022/03/24 03:02:32;;;;;;;9.15;2.55;;;;;;;10.12;65.30;101291.22;2085121;28;20082;-80
2022/03/24 03:03:55;;;;;;;6.82;3.22;;;;;;;10.11;65.29;101293.84;2070930;28;20105;-80
2022/03/24 03:05:20;;;;;;;13.63;4.18;;;;;;;10.07;65.67;101299.88;2074665;28;20052;-79
2022/03/24 03:06:42;;;;;;;7.25;3.15;;;;;;;9.98;66.39;101288.22;2083588;28;20084;-81
2022/03/24 03:08:09;;;;;;;5.07;2.38;;;;;;;9.91;66.87;101286.25;2068473;28;20058;-80
2022/03/24 03:09:32;;;;;;;4.28;2.42;;;;;;;9.83;67.23;101295.75;2068476;28;20077;-79
2022/03/24 03:10:56;;;;;;;8.68;3.78;;;;;;;9.81;67.24;101294.78;2077618;28;20139;-79
2022/03/24 03:12:19;;;;;;;9.35;3.47;;;;;;;9.78;67.05;101289.41;2084786;28;20057;-80
2022/03/24 03:13:42;;;;;;;4.38;2.05;;;;;;;9.78;67.10;101296.47;2079348;28;20616;-81
2022/03/24 03:15:06;;;;;;;6.97;2.88;;;;;;;9.76;67.08;101293.78;2069194;28;20486;-80
2022/03/24 03:16:27;;;;;;;5.43;2.13;;;;;;;9.66;67.55;101297.00;2082633;28;20099;-80
2022/03/24 03:17:50;;;;;;;;;;;;;;;9.52;67.98;101303.63;2085406;28;20044;-80
2022/03/24 03:19:12;;;;;;;11.70;3.78;;;;;;;9.40;68.63;101300.63;2073886;28;19925;-79
2022/03/24 03:20:35;;;;;;;7.00;3.10;;;;;;;9.36;68.73;101299.66;2082681;28;20473;-79
2022/03/24 03:21:58;;;;;;;3.83;2.58;;;;;;;9.34;68.85;101298.72;2078014;28;20063;-80
2022/03/24 03:23:22;;;;;;;10.48;4.10;;;;;;;9.17;69.58;101298.25;2068669;28;20050;-80
2022/03/24 03:24:45;;;;;;;4.95;2.05;;;;;;;9.03;70.38;101296.94;2089973;28;20118;-80
2022/03/24 03:26:06;;;;;;;8.95;2.58;;;;;;;8.93;71.11;101299.22;2073348;28;20050;-79
2022/03/24 03:27:31;;;;;;;12.60;4.22;;;;;;;8.87;71.51;101297.31;2065703;28;20056;-78
2022/03/24 03:28:53;;;;;;;11.63;6.40;;;;;;;8.90;71.84;101292.16;2077234;28;20516;-80
2022/03/24 03:30:15;;;;;;;8.70;3.55;;;;;;;8.94;72.04;101293.13;2077298;28;20033;-78
2022/03/24 03:31:39;;;;;;;11.18;4.00;;;;;;;9.01;71.91;101295.09;2063944;28;20133;-79
2022/03/24 03:33:02;;;;;;;9.73;3.42;;;;;;;9.10;71.56;101300.66;2066657;28;20058;-79
2022/03/24 03:34:25;;;;;;;8.15;3.22;;;;;;;9.18;71.39;101296.50;2068762;28;20054;-78
2022/03/24 03:35:47;;;;;;;8.63;3.25;;;;;;;9.25;71.03;101298.47;2073119;28;20429;-79
2022/03/24 03:37:12;;;;;;;10.23;3.80;;;;;;;9.30;71.30;101314.41;2079381;28;20099;-79
2022/03/24 03:38:35;;;;;;;7.22;2.83;;;;;;;9.35;71.32;101304.88;2082492;28;20060;-80
2022/03/24 03:39:57;;;;;;;13.93;4.18;;;;;;;9.36;71.32;101307.56;2084370;28;20052;-79
2022/03/24 03:41:20;;;;;;;12.80;3.35;;;;;;;9.40;71.12;101309.44;2084597;28;20047;-79
2022/03/24 03:42:43;;;;;;;7.13;3.25;;;;;;;9.42;70.88;101307.75;2076545;28;20045;-79
2022/03/24 03:44:06;;;;;;;12.15;3.13;;;;;;;9.46;70.43;101320.16;2065528;28;20052;-80
2022/03/24 03:45:28;;;;;;;8.75;3.40;;;;;;;9.49;70.41;101311.47;2074792;28;20037;-80
2022/03/24 03:46:50;;;;;;;11.85;2.90;;;;;;;9.49;70.09;101327.28;2074243;28;20541;-80
2022/03/24 03:48:13;;;;;;;9.00;2.53;;;;;;;9.53;69.85;101323.88;2090350;28;20049;-80
2022/03/24 03:49:36;;;;;;;2.83;1.60;;;;;;;9.53;69.95;101332.66;2079180;28;20053;-80
2022/03/24 03:50:58;;;;;;;6.32;3.10;;;;;;;9.53;70.09;101332.66;2090507;28;20131;-80
2022/03/24 03:52:20;;;;;;;7.43;2.15;;;;;;;9.51;69.84;101330.84;2070293;28;20042;-80
2022/03/24 03:53:45;;;;;;;10.05;3.03;;;;;;;9.52;70.15;101335.25;2078892;28;20050;-80
2022/03/24 03:55:10;;;;;;;8.45;2.80;;;;;;;9.50;70.00;101340.50;2054547;28;20658;-80
2022/03/24 03:56:33;;;;;;;6.70;2.65;;;;;;;9.49;70.05;101316.72;2068186;28;20076;-80
2022/03/24 03:57:54;;;;;;;10.68;2.60;;;;;;;9.47;69.87;101339.50;2079599;28;20045;-81
2022/03/24 03:59:17;;;;;;;7.65;2.80;;;;;;;9.47;69.99;101347.41;2076614;28;20132;-80
2022/03/24 04:00:55;;;;;;;5.15;2.78;;;;;;;9.47;69.80;101337.75;2076303;28;20048;-80
2022/03/24 04:02:18;;;;;;;8.85;3.30;;;;;;;9.46;69.79;101341.25;2069875;28;20054;-80
2022/03/24 04:03:40;;;;;;;8.32;3.38;;;;;;;9.49;69.75;101346.63;2078918;28;20643;-80
2022/03/24 04:05:02;;;;;;;11.43;3.35;;;;;;;9.50;69.43;101351.03;2076285;28;20629;-80
2022/03/24 04:06:25;;;;;;;5.68;2.58;;;;;;;9.54;69.45;101352.00;2076804;28;20049;-80
2022/03/24 04:07:47;;;;;;;9.50;3.47;;;;;;;9.56;69.22;101343.31;2067230;28;20050;-81
2022/03/24 04:09:11;;;;;;;7.32;2.03;;;;;;;9.56;68.94;101348.56;2079904;28;20049;-80
2022/03/24 04:10:33;;;;;;;6.63;3.35;;;;;;;9.53;68.93;101342.31;2076586;28;20041;-80
2022/03/24 04:11:55;;;;;;;9.73;3.42;;;;;;;9.53;68.98;101355.47;2076440;28;20053;-80
2022/03/24 04:13:18;;;;;;;7.43;2.35;;;;;;;9.57;68.90;101355.63;2076359;28;20053;-81
2022/03/24 04:14:41;;;;;;;11.77;4.13;;;;;;;9.58;68.96;101364.44;2073837;28;20033;-81
2022/03/24 04:16:05;;;;;;;8.63;3.40;;;;;;;9.57;68.89;101352.09;2079820;28;20052;-81
2022/03/24 04:17:28;;;;;;;10.90;3.50;;;;;;;9.60;69.11;101366.25;2079003;28;20627;-80
2022/03/24 04:18:50;;;;;;;9.05;2.72;;;;;;;9.60;69.06;101355.72;2068416;28;20054;-80
2022/03/24 04:20:13;;;;;;;10.45;3.78;;;;;;;9.63;69.06;101356.66;2081920;28;20052;-80
2022/03/24 04:21:36;;;;;;;8.00;2.70;;;;;;;9.67;68.98;101346.25;2072544;28;20050;-79
2022/03/24 04:23:00;;;;;;;10.02;3.35;;;;;;;9.75;68.77;101351.72;2075105;28;20057;-80
2022/03/24 04:24:26;;;;;;;10.93;2.80;;;;;;;9.78;68.53;101354.47;2079768;28;20424;-80
2022/03/24 04:25:47;;;;;;;9.60;3.17;;;;;;;9.81;68.51;101354.53;2085614;28;20461;-81
2022/03/24 04:27:11;;;;;;;6.03;2.72;;;;;;;9.84;68.52;101371.34;2086229;28;20140;-80
2022/03/24 04:28:33;;;;;;;10.63;3.03;;;;;;;9.87;68.09;101352.97;2086248;28;20574;-80
2022/03/24 04:29:56;;;;;;;12.23;3.35;;;;;;;9.89;68.39;101358.28;2080026;28;20053;-80
2022/03/24 04:31:19;;;;;;;10.65;3.88;;;;;;;9.90;68.23;101352.19;2086055;28;20045;-80
2022/03/24 04:32:41;;;;;;;8.85;3.45;;;;;;;9.93;68.37;101355.78;2071785;28;20046;-81
2022/03/24 04:34:04;;;;;;;6.10;2.28;;;;;;;9.96;68.27;101358.50;2067126;28;20050;-80
2022/03/24 04:35:27;;;;;;;13.07;3.92;;;;;;;10.00;68.35;101364.75;2090320;28;20052;-80
2022/03/24 04:36:49;;;;;;;8.73;2.75;;;;;;;10.02;68.31;101364.78;2096470;28;20053;-79
2022/03/24 04:38:14;;;;;;;11.63;3.30;;;;;;;10.04;68.16;101365.75;2087793;28;20053;-80
2022/03/24 04:39:37;;;;;;;8.20;2.90;;;;;;;10.09;68.05;101362.38;2086574;28;20131;-80
2022/03/24 04:41:00;;;;;;;5.25;2.55;;;;;;;10.08;67.95;101367.59;2079820;28;20053;-80
2022/03/24 04:42:22;;;;;;;9.70;3.22;;;;;;;10.12;67.63;101351.00;2086092;28;20056;-80
2022/03/24 04:43:45;;;;;;;8.38;3.50;;;;;;;10.12;67.29;101369.44;2064148;28;20081;-80
2022/03/24 04:45:06;;;;;;;8.93;3.15;;;;;;;10.15;66.97;101365.16;2079346;28;20045;-80
2022/03/24 04:46:29;;;;;;;7.20;2.45;;;;;;;10.19;66.84;101369.69;2080081;28;20038;-80
2022/03/24 04:47:51;;;;;;;8.57;2.95;;;;;;;10.22;66.81;101379.47;2086198;28;20041;-80
2022/03/24 04:49:14;;;;;;;13.48;6.15;;;;;;;10.24;66.62;101378.63;2096746;28;20052;-80
2022/03/24 04:50:37;;;;;;;6.28;2.75;;;;;;;10.25;66.85;101380.41;2083940;28;20033;-80
2022/03/24 04:52:00;;;;;;;9.90;2.85;;;;;;;10.27;66.70;101380.47;2071712;28;20104;-79
2022/03/24 04:53:22;;;;;;;9.32;3.22;;;;;;;10.30;66.72;101376.19;2066457;28;20057;-80
2022/03/24 04:54:46;;;;;;;6.00;1.75;;;;;;;10.35;66.80;101387.75;2091661;28;20060;-81
2022/03/24 04:56:10;;;;;;;7.28;2.80;;;;;;;10.36;66.68;101392.19;2074672;28;20125;-80
2022/03/24 04:57:31;;;;;;;5.47;2.10;;;;;;;10.39;66.63;101394.88;2064420;28;20050;-80
2022/03/24 04:58:53;;;;;;;6.05;2.75;;;;;;;10.38;66.46;101393.09;2072627;28;20059;-80
2022/03/24 05:00:17;;;;;;;9.20;3.00;;;;;;;10.39;66.55;101365.84;2075406;28;20037;-79
2022/03/24 05:01:40;;;;;;;7.70;2.40;;;;;;;10.41;66.50;101388.75;2086127;28;20045;-80
2022/03/24 05:03:04;;;;;;;8.73;3.30;;;;;;;10.42;66.58;101398.47;2064567;28;20069;-80
2022/03/24 05:04:27;;;;;;;12.40;3.75;;;;;;;10.43;66.49;101400.25;2073071;28;20099;-79
2022/03/24 05:05:50;;;;;;;7.53;2.50;;;;;;;10.43;66.41;101395.88;2077598;28;20050;-80
2022/03/24 05:07:11;;;;;;;8.32;3.00;;;;;;;10.43;66.56;101395.88;2077110;28;20037;-80
2022/03/24 05:08:34;;;;;;;7.25;2.33;;;;;;;10.43;66.44;101390.59;2082969;28;20053;-80
2022/03/24 05:09:57;;;;;;;8.75;4.07;;;;;;;10.43;66.35;101408.16;2072812;28;20144;-80
2022/03/24 05:11:20;;;;;;;15.57;3.58;;;;;;;10.42;66.23;101395.81;2083215;28;20131;-79
2022/03/24 05:12:42;;;;;;;10.18;3.42;;;;;;;10.41;66.29;101394.03;2085729;28;20049;-79
2022/03/24 05:14:04;;;;;;;8.30;2.58;;;;;;;10.40;66.29;101398.41;2088461;28;20048;-79
2022/03/24 05:15:27;;;;;;;7.88;3.08;;;;;;;10.42;66.28;101385.25;2085772;28;20443;-80
2022/03/24 05:16:50;;;;;;;7.55;1.95;;;;;;;10.45;66.09;101387.97;2075045;28;20076;-80
2022/03/24 05:18:12;;;;;;;8.18;2.70;;;;;;;10.45;66.17;101387.97;2066845;28;20038;-80
2022/03/24 05:19:34;;;;;;;12.52;3.28;;;;;;;10.46;65.90;101393.28;2070482;28;20107;-80
2022/03/24 05:20:57;;;;;;;9.45;3.55;;;;;;;10.47;65.99;101397.72;2085623;28;20045;-80
2022/03/24 05:22:19;;;;;;;14.38;3.05;;;;;;;10.48;65.96;101396.88;2086874;28;20138;-80
2022/03/24 05:23:41;;;;;;;6.40;2.65;;;;;;;10.49;65.86;101397.78;2067951;28;20046;-82
2022/03/24 05:25:07;;;;;;;10.82;3.58;;;;;;;10.54;65.72;101398.78;2073603;28;20313;-81
2022/03/24 05:26:32;;;;;;;5.30;2.15;;;;;;;10.54;65.85;101407.59;2062597;28;20054;-81
2022/03/24 05:27:55;;;;;;;9.45;2.95;;;;;;;10.57;65.80;101409.38;2076146;28;20133;-82
2022/03/24 05:29:16;;;;;;;5.60;2.25;;;;;;;10.60;65.50;101410.38;2077193;28;20087;-81
2022/03/24 05:30:40;;;;;;;5.82;2.70;;;;;;;10.61;65.38;101409.53;2077741;28;20053;-81
2022/03/24 05:32:02;;;;;;;9.05;3.25;;;;;;;10.65;65.34;101411.38;2071194;28;20457;-81
2022/03/24 05:33:25;;;;;;;8.65;3.78;;;;;;;10.68;65.46;101408.84;2074310;28;20067;-81
2022/03/24 05:34:48;;;;;;;16.52;6.57;;;;;;;10.74;65.25;101414.28;2079490;28;20045;-81
2022/03/24 05:36:11;;;;;;;19.00;6.10;;;;;;;10.76;65.06;101417.81;2070409;28;20132;-80
2022/03/24 05:37:34;;;;;;;13.85;4.50;;;;;;;10.75;64.92;101408.16;2074914;28;20075;-80
2022/03/24 05:38:56;;;;;;;11.30;4.43;;;;;;;10.76;64.69;101414.31;2083775;28;20065;-80
2022/03/24 05:40:21;;;;;;;7.78;2.97;;;;;;;10.78;64.46;101416.13;2088124;28;20499;-80
2022/03/24 05:41:43;;;;;;;7.80;3.67;;;;;;;10.77;64.43;101424.91;2058396;28;20050;-81
2022/03/24 05:43:06;;;;;;;8.95;3.33;;;;;;;10.78;64.21;101418.75;2077611;28;20398;-79
2022/03/24 05:44:28;;;;;;;8.02;3.70;;;;;;;10.81;64.17;101420.59;2090777;28;20413;-81
2022/03/24 05:45:51;;;;;;;6.90;2.80;;;;;;;10.80;64.09;101424.09;2083974;28;20158;-81
2022/03/24 05:47:14;;;;;;;5.90;2.22;;;;;;;10.80;64.25;101424.09;2072313;28;20050;-79
2022/03/24 05:48:37;;;;;;;8.73;3.05;;;;;;;10.79;64.34;101424.94;2079327;28;20052;-80
2022/03/24 05:50:20;;;;;;;11.50;3.25;;;;;;;10.81;64.47;101433.81;2095601;28;20071;-80
2022/03/24 05:52:22;;;;;;;8.65;2.45;;;;;;;10.87;64.52;101426.03;2090358;28;20135;-80
2022/03/24 05:53:44;;;;;;;9.63;3.03;;;;;;;10.94;64.49;101427.97;2063173;28;20089;-80
2022/03/24 05:55:08;;;;;;;6.07;2.95;;;;;;;11.04;64.32;101424.69;2084863;28;20044;-80
2022/03/24 05:56:31;;;;;;;6.53;2.67;;;;;;;11.13;64.17;101431.97;2077934;28;20493;-80
2022/03/24 05:57:53;;;;;;;10.23;3.65;;;;;;;11.21;64.11;101435.69;2080534;28;20467;-80
2022/03/24 05:59:16;;;;;;;9.95;2.88;;;;;;;11.19;63.67;101435.63;2077067;28;20124;-80
2022/03/24 06:00:40;;;;;;;3.72;1.48;;;;;;;11.17;63.46;101436.44;2082305;28;20065;-80
2022/03/24 06:02:03;;;;;;;8.70;2.85;;;;;;;11.02;63.53;101447.56;2069868;28;20564;-80
2022/03/24 06:03:27;;;;;;;10.25;3.22;;;;;;;10.94;63.96;101457.03;2080320;28;20041;-80
2022/03/24 06:04:50;;;;;;;11.70;3.60;;;;;;;10.68;64.73;101448.44;2081531;28;20075;-78
2022/03/24 06:06:12;;;;;;;6.93;2.30;;;;;;;10.38;66.17;101463.44;2068469;28;20141;-76
2022/03/24 06:07:35;;;;;;;9.40;2.80;;;;;;;10.03;67.82;101465.06;2065806;28;20050;-78
2022/03/24 06:08:57;;;;;;;6.72;2.30;;;;;;;9.73;69.78;101458.88;2061681;28;20552;-78
2022/03/24 06:10:20;;;;;;;12.48;4.28;;;;;;;9.51;70.73;101462.63;2080050;28;20076;-77
2022/03/24 06:11:44;;;;;;;12.57;4.05;;;;;;;9.42;71.09;101465.84;2064637;28;20157;-77
2022/03/24 06:13:08;;;;;;;5.20;3.10;;;;;;;9.36;71.47;101476.19;2074205;28;20057;-78
2022/03/24 06:14:32;;;;;;;12.68;3.78;;;;;;;9.27;71.88;101477.63;2068855;28;20470;-77
2022/03/24 06:15:55;;;;;;;9.60;4.65;;;;;;;9.18;72.29;101467.72;2074813;28;20053;-76
2022/03/24 06:17:20;;;;;;;12.23;4.82;;;;;;;9.14;72.52;101465.81;2084008;28;20529;-77
2022/03/24 06:18:42;;;;;;;14.88;6.60;;;;;;;9.15;72.90;101464.97;2076829;28;20373;-77
2022/03/24 06:20:06;;;;;;;11.20;4.97;;;;;;;9.14;73.30;101460.53;2072017;28;20140;-77
2022/03/24 06:21:29;;;;;;;14.93;5.93;;;;;;;9.12;73.20;101457.00;2085261;28;20059;-77
2022/03/24 06:22:53;;;;;;;14.57;5.50;;;;;;;9.12;73.76;101441.19;2071578;28;20045;-77
2022/03/24 06:24:16;;;;;;;12.63;3.05;;;;;;;9.10;73.89;101443.75;2071223;28;20053;-77
2022/03/24 06:25:39;;;;;;;13.38;5.40;;;;;;;9.13;73.94;101442.94;2075252;28;20037;-78
2022/03/24 06:27:04;;;;;;;13.45;5.22;;;;;;;9.14;74.51;101450.91;2077076;28;20576;-78
2022/03/24 06:28:25;;;;;;;14.25;6.00;;;;;;;9.11;74.73;101452.56;2068417;28;20493;-78